If you wish to contribute or participate in the discussions about articles you are invited to join SKYbrary as a registered user

 Actions

Chandigarh Airport

From SKYbrary Wiki

VICG
Airport
ICAO: VICG
Summary
Name Chandigarh Airport
Region Asia and Pacific
Territory India IN.gif
Location Chandigarh, Haryana and Punjab
Serving
Coordinates 30° 40' 14.97" N, 76° 48' 4.75" E
Runways
Designator Length Width Surface ROPS
11/29 2744 m9,002.625 ft
51 m167.323 ft
ASP yes/yes


METAR
Observation VICG 221530Z 33003KT 6000 FEW030 32/29 Q1001 NOSIG
Station Chandigarh Airport
Date/Time 22 July 2019 15:30:00
Wind direction 330°
Wind speed 03 kts
Lowest cloud amount few clouds
Temperature 32°C
Dew point 29°C
Humidity 84%
QNH 1001 hPa
Weather condition n/a

BS
Tag(s) Bird Strike
WX
Tag(s) Cumulonimbus

Chandigarh Airport

ICAO: VICG IATA: IXC

Description

Chandigarh Airport is located in the Union Territory of Chandigarh, the capital city of the provinces of Haryana and Punjab, India.

Climatology

Humid “subtropical” climate (Köppen climate classification Cwa) - characterized by hot, humid summers and cool winters.

Maps

Terrain

Loading map...

Airport Layout

Loading map...



Accidents & Serious Incidents at or in vicinity of VICG

None on SKYbrary